sensor_id;sensor_type;location;lat;lon;timestamp;P1;durP1;ratioP1;P2;durP2;ratioP2
20695;SDS011;10507;52.754;13.040;2023-12-20T00:01:03;11.40;;;6.67;;
20695;SDS011;10507;52.754;13.040;2023-12-20T00:03:30;9.37;;;6.17;;
20695;SDS011;10507;52.754;13.040;2023-12-20T00:05:56;9.47;;;6.53;;
20695;SDS011;10507;52.754;13.040;2023-12-20T00:08:23;9.37;;;6.57;;
20695;SDS011;10507;52.754;13.040;2023-12-20T00:10:50;10.20;;;6.87;;
20695;SDS011;10507;52.754;13.040;2023-12-20T00:13:17;7.90;;;5.47;;
20695;SDS011;10507;52.754;13.040;2023-12-20T00:15:43;9.97;;;6.03;;
20695;SDS011;10507;52.754;13.040;2023-12-20T00:18:14;15.77;;;7.00;;
20695;SDS011;10507;52.754;13.040;2023-12-20T00:20:41;8.93;;;5.83;;
20695;SDS011;10507;52.754;13.040;2023-12-20T00:23:08;8.10;;;5.50;;
20695;SDS011;10507;52.754;13.040;2023-12-20T00:25:37;8.53;;;6.20;;
20695;SDS011;10507;52.754;13.040;2023-12-20T00:28:04;10.20;;;6.57;;
20695;SDS011;10507;52.754;13.040;2023-12-20T00:30:32;9.50;;;7.03;;
20695;SDS011;10507;52.754;13.040;2023-12-20T00:33:00;10.07;;;6.57;;
20695;SDS011;10507;52.754;13.040;2023-12-20T00:35:28;9.03;;;6.87;;
20695;SDS011;10507;52.754;13.040;2023-12-20T00:37:55;9.83;;;7.07;;
20695;SDS011;10507;52.754;13.040;2023-12-20T00:40:24;9.37;;;6.70;;
20695;SDS011;10507;52.754;13.040;2023-12-20T00:42:54;9.30;;;6.27;;
20695;SDS011;10507;52.754;13.040;2023-12-20T00:45:23;8.63;;;5.70;;
20695;SDS011;10507;52.754;13.040;2023-12-20T00:47:49;7.80;;;5.73;;
20695;SDS011;10507;52.754;13.040;2023-12-20T00:50:16;8.87;;;5.90;;
20695;SDS011;10507;52.754;13.040;2023-12-20T00:52:48;9.27;;;6.47;;
20695;SDS011;10507;52.754;13.040;2023-12-20T00:55:14;9.43;;;5.93;;
20695;SDS011;10507;52.754;13.040;2023-12-20T00:57:43;10.27;;;6.43;;
20695;SDS011;10507;52.754;13.040;2023-12-20T01:00:13;11.17;;;6.53;;
20695;SDS011;10507;52.754;13.040;2023-12-20T01:02:40;9.20;;;6.10;;
20695;SDS011;10507;52.754;13.040;2023-12-20T01:05:07;9.47;;;5.87;;
20695;SDS011;10507;52.754;13.040;2023-12-20T01:07:34;9.53;;;6.10;;
20695;SDS011;10507;52.754;13.040;2023-12-20T01:10:02;11.80;;;6.37;;
20695;SDS011;10507;52.754;13.040;2023-12-20T01:12:29;10.40;;;5.80;;
20695;SDS011;10507;52.754;13.040;2023-12-20T01:14:56;10.57;;;6.53;;
20695;SDS011;10507;52.754;13.040;2023-12-20T01:17:23;8.93;;;6.20;;
20695;SDS011;10507;52.754;13.040;2023-12-20T01:19:50;8.70;;;5.87;;
20695;SDS011;10507;52.754;13.040;2023-12-20T01:22:17;10.30;;;5.87;;
20695;SDS011;10507;52.754;13.040;2023-12-20T01:24:44;9.07;;;5.50;;
20695;SDS011;10507;52.754;13.040;2023-12-20T01:27:12;8.73;;;5.80;;
20695;SDS011;10507;52.754;13.040;2023-12-20T01:29:42;11.13;;;6.93;;
20695;SDS011;10507;52.754;13.040;2023-12-20T01:32:09;9.93;;;6.50;;
20695;SDS011;10507;52.754;13.040;2023-12-20T01:34:38;10.53;;;6.10;;
20695;SDS011;10507;52.754;13.040;2023-12-20T01:37:04;10.83;;;5.87;;
20695;SDS011;10507;52.754;13.040;2023-12-20T01:39:35;8.80;;;5.77;;
20695;SDS011;10507;52.754;13.040;2023-12-20T01:42:09;9.97;;;6.70;;
20695;SDS011;10507;52.754;13.040;2023-12-20T01:44:38;12.00;;;6.40;;
20695;SDS011;10507;52.754;13.040;2023-12-20T01:47:05;9.83;;;6.27;;
20695;SDS011;10507;52.754;13.040;2023-12-20T01:49:32;12.03;;;6.90;;
20695;SDS011;10507;52.754;13.040;2023-12-20T01:52:01;9.80;;;6.40;;
20695;SDS011;10507;52.754;13.040;2023-12-20T01:54:28;11.23;;;5.73;;
20695;SDS011;10507;52.754;13.040;2023-12-20T01:56:55;10.20;;;5.73;;
20695;SDS011;10507;52.754;13.040;2023-12-20T01:59:22;8.73;;;5.60;;
20695;SDS011;10507;52.754;13.040;2023-12-20T02:01:50;9.57;;;5.27;;
20695;SDS011;10507;52.754;13.040;2023-12-20T02:04:17;10.83;;;5.50;;
20695;SDS011;10507;52.754;13.040;2023-12-20T02:06:52;8.50;;;5.00;;
20695;SDS011;10507;52.754;13.040;2023-12-20T02:09:19;11.07;;;5.03;;
20695;SDS011;10507;52.754;13.040;2023-12-20T02:11:46;7.60;;;4.50;;
20695;SDS011;10507;52.754;13.040;2023-12-20T02:14:13;9.77;;;4.50;;
20695;SDS011;10507;52.754;13.040;2023-12-20T02:16:42;11.43;;;4.07;;
20695;SDS011;10507;52.754;13.040;2023-12-20T02:19:14;7.80;;;3.53;;
20695;SDS011;10507;52.754;13.040;2023-12-20T02:21:49;6.83;;;3.80;;
20695;SDS011;10507;52.754;13.040;2023-12-20T02:24:19;8.20;;;3.83;;
20695;SDS011;10507;52.754;13.040;2023-12-20T02:26:46;6.60;;;3.40;;
20695;SDS011;10507;52.754;13.040;2023-12-20T02:29:12;5.43;;;3.37;;
20695;SDS011;10507;52.754;13.040;2023-12-20T02:31:40;10.53;;;3.40;;
20695;SDS011;10507;52.754;13.040;2023-12-20T02:34:07;7.03;;;3.60;;
20695;SDS011;10507;52.754;13.040;2023-12-20T02:36:35;6.90;;;3.27;;
20695;SDS011;10507;52.754;13.040;2023-12-20T02:39:05;9.10;;;3.50;;
20695;SDS011;10507;52.754;13.040;2023-12-20T02:41:33;8.57;;;3.10;;
20695;SDS011;10507;52.754;13.040;2023-12-20T02:44:05;8.53;;;3.17;;
20695;SDS011;10507;52.754;13.040;2023-12-20T02:46:34;6.20;;;3.23;;
20695;SDS011;10507;52.754;13.040;2023-12-20T02:49:00;7.70;;;2.93;;
20695;SDS011;10507;52.754;13.040;2023-12-20T02:51:27;7.67;;;2.80;;
20695;SDS011;10507;52.754;13.040;2023-12-20T02:53:54;9.33;;;3.13;;
20695;SDS011;10507;52.754;13.040;2023-12-20T02:56:22;5.47;;;3.10;;
20695;SDS011;10507;52.754;13.040;2023-12-20T02:58:49;8.20;;;2.73;;
20695;SDS011;10507;52.754;13.040;2023-12-20T03:01:18;8.97;;;3.17;;
20695;SDS011;10507;52.754;13.040;2023-12-20T03:03:45;10.63;;;2.97;;
20695;SDS011;10507;52.754;13.040;2023-12-20T03:06:21;8.10;;;2.90;;
20695;SDS011;10507;52.754;13.040;2023-12-20T03:08:48;9.67;;;3.30;;
20695;SDS011;10507;52.754;13.040;2023-12-20T03:11:18;6.23;;;3.03;;
20695;SDS011;10507;52.754;13.040;2023-12-20T03:13:56;8.80;;;2.60;;
20695;SDS011;10507;52.754;13.040;2023-12-20T03:16:23;7.53;;;2.70;;
20695;SDS011;10507;52.754;13.040;2023-12-20T03:18:51;6.40;;;2.70;;
20695;SDS011;10507;52.754;13.040;2023-12-20T03:21:26;7.70;;;2.70;;
20695;SDS011;10507;52.754;13.040;2023-12-20T03:23:53;9.40;;;2.87;;
20695;SDS011;10507;52.754;13.040;2023-12-20T03:26:21;7.80;;;2.40;;
20695;SDS011;10507;52.754;13.040;2023-12-20T03:28:48;6.57;;;2.90;;
20695;SDS011;10507;52.754;13.040;2023-12-20T03:31:20;6.97;;;2.40;;
20695;SDS011;10507;52.754;13.040;2023-12-20T03:33:53;11.40;;;3.37;;
20695;SDS011;10507;52.754;13.040;2023-12-20T03:36:19;9.73;;;3.70;;
20695;SDS011;10507;52.754;13.040;2023-12-20T03:38:46;7.60;;;2.60;;
20695;SDS011;10507;52.754;13.040;2023-12-20T03:41:13;8.97;;;2.20;;
20695;SDS011;10507;52.754;13.040;2023-12-20T03:43:40;8.03;;;2.30;;
20695;SDS011;10507;52.754;13.040;2023-12-20T03:46:07;8.50;;;2.97;;
20695;SDS011;10507;52.754;13.040;2023-12-20T03:48:36;7.07;;;1.90;;
20695;SDS011;10507;52.754;13.040;2023-12-20T03:51:02;4.87;;;2.37;;
20695;SDS011;10507;52.754;13.040;2023-12-20T03:53:28;8.20;;;2.03;;
20695;SDS011;10507;52.754;13.040;2023-12-20T03:55:55;6.67;;;2.57;;
20695;SDS011;10507;52.754;13.040;2023-12-20T03:58:22;6.50;;;2.17;;
20695;SDS011;10507;52.754;13.040;2023-12-20T04:00:50;7.83;;;1.80;;
20695;SDS011;10507;52.754;13.040;2023-12-20T04:03:21;5.87;;;1.63;;
20695;SDS011;10507;52.754;13.040;2023-12-20T04:05:49;6.67;;;1.93;;
20695;SDS011;10507;52.754;13.040;2023-12-20T04:08:16;5.50;;;2.27;;
20695;SDS011;10507;52.754;13.040;2023-12-20T04:10:43;7.23;;;2.30;;
20695;SDS011;10507;52.754;13.040;2023-12-20T04:13:09;10.30;;;1.87;;
20695;SDS011;10507;52.754;13.040;2023-12-20T04:15:36;8.37;;;1.93;;
20695;SDS011;10507;52.754;13.040;2023-12-20T04:18:06;7.37;;;1.50;;
20695;SDS011;10507;52.754;13.040;2023-12-20T04:20:35;5.07;;;1.80;;
20695;SDS011;10507;52.754;13.040;2023-12-20T04:23:07;4.37;;;1.60;;
20695;SDS011;10507;52.754;13.040;2023-12-20T04:25:33;5.50;;;2.40;;
20695;SDS011;10507;52.754;13.040;2023-12-20T04:28:06;7.97;;;1.87;;
20695;SDS011;10507;52.754;13.040;2023-12-20T04:30:33;6.30;;;1.70;;
20695;SDS011;10507;52.754;13.040;2023-12-20T04:33:09;5.00;;;2.00;;
20695;SDS011;10507;52.754;13.040;2023-12-20T04:35:40;10.83;;;1.93;;
20695;SDS011;10507;52.754;13.040;2023-12-20T04:38:11;12.03;;;2.57;;
20695;SDS011;10507;52.754;13.040;2023-12-20T04:40:39;4.87;;;1.83;;
20695;SDS011;10507;52.754;13.040;2023-12-20T04:43:06;9.40;;;2.50;;
20695;SDS011;10507;52.754;13.040;2023-12-20T04:45:32;6.10;;;1.90;;
20695;SDS011;10507;52.754;13.040;2023-12-20T04:47:59;7.33;;;1.90;;
20695;SDS011;10507;52.754;13.040;2023-12-20T04:50:27;11.47;;;2.83;;
20695;SDS011;10507;52.754;13.040;2023-12-20T04:52:53;7.57;;;2.00;;
20695;SDS011;10507;52.754;13.040;2023-12-20T04:55:22;11.97;;;2.40;;
20695;SDS011;10507;52.754;13.040;2023-12-20T04:57:49;7.53;;;2.40;;
20695;SDS011;10507;52.754;13.040;2023-12-20T05:00:16;5.50;;;2.20;;
20695;SDS011;10507;52.754;13.040;2023-12-20T05:02:43;6.83;;;1.97;;
20695;SDS011;10507;52.754;13.040;2023-12-20T05:05:10;10.07;;;2.10;;
20695;SDS011;10507;52.754;13.040;2023-12-20T05:07:36;12.13;;;2.67;;
20695;SDS011;10507;52.754;13.040;2023-12-20T05:10:03;7.40;;;2.00;;
20695;SDS011;10507;52.754;13.040;2023-12-20T05:12:34;10.40;;;2.33;;
20695;SDS011;10507;52.754;13.040;2023-12-20T05:15:01;10.87;;;2.17;;
20695;SDS011;10507;52.754;13.040;2023-12-20T05:17:28;6.13;;;2.57;;
20695;SDS011;10507;52.754;13.040;2023-12-20T05:19:55;8.07;;;2.27;;
20695;SDS011;10507;52.754;13.040;2023-12-20T05:22:22;6.90;;;2.80;;
20695;SDS011;10507;52.754;13.040;2023-12-20T05:24:52;25.13;;;3.23;;
20695;SDS011;10507;52.754;13.040;2023-12-20T05:27:18;6.33;;;2.57;;
20695;SDS011;10507;52.754;13.040;2023-12-20T05:29:49;7.63;;;2.50;;
20695;SDS011;10507;52.754;13.040;2023-12-20T05:32:16;11.37;;;3.30;;
20695;SDS011;10507;52.754;13.040;2023-12-20T05:34:43;12.90;;;3.00;;
20695;SDS011;10507;52.754;13.040;2023-12-20T05:37:12;8.90;;;3.00;;
20695;SDS011;10507;52.754;13.040;2023-12-20T05:39:42;11.23;;;2.60;;
20695;SDS011;10507;52.754;13.040;2023-12-20T05:42:08;9.97;;;2.60;;
20695;SDS011;10507;52.754;13.040;2023-12-20T05:44:35;14.03;;;3.30;;
20695;SDS011;10507;52.754;13.040;2023-12-20T05:47:03;10.50;;;2.50;;
20695;SDS011;10507;52.754;13.040;2023-12-20T05:49:30;8.70;;;2.33;;
20695;SDS011;10507;52.754;13.040;2023-12-20T05:51:57;8.63;;;2.80;;
20695;SDS011;10507;52.754;13.040;2023-12-20T05:54:24;9.03;;;2.37;;
20695;SDS011;10507;52.754;13.040;2023-12-20T05:56:51;13.10;;;2.10;;
20695;SDS011;10507;52.754;13.040;2023-12-20T05:59:18;12.27;;;2.30;;
20695;SDS011;10507;52.754;13.040;2023-12-20T06:01:44;12.40;;;2.83;;
20695;SDS011;10507;52.754;13.040;2023-12-20T06:04:13;5.47;;;2.57;;
20695;SDS011;10507;52.754;13.040;2023-12-20T06:06:42;11.50;;;2.03;;
20695;SDS011;10507;52.754;13.040;2023-12-20T06:09:09;6.47;;;2.27;;
20695;SDS011;10507;52.754;13.040;2023-12-20T06:11:36;13.53;;;2.50;;
20695;SDS011;10507;52.754;13.040;2023-12-20T06:14:03;10.67;;;2.40;;
20695;SDS011;10507;52.754;13.040;2023-12-20T06:16:30;7.43;;;2.10;;
20695;SDS011;10507;52.754;13.040;2023-12-20T06:19:01;8.10;;;2.13;;
20695;SDS011;10507;52.754;13.040;2023-12-20T06:21:29;8.53;;;2.53;;
20695;SDS011;10507;52.754;13.040;2023-12-20T06:24:01;7.97;;;2.60;;
20695;SDS011;10507;52.754;13.040;2023-12-20T06:26:30;13.33;;;2.23;;
20695;SDS011;10507;52.754;13.040;2023-12-20T06:28:57;14.00;;;2.67;;
20695;SDS011;10507;52.754;13.040;2023-12-20T06:31:24;10.00;;;2.63;;
20695;SDS011;10507;52.754;13.040;2023-12-20T06:33:51;9.73;;;2.33;;
20695;SDS011;10507;52.754;13.040;2023-12-20T06:36:22;9.80;;;3.33;;
20695;SDS011;10507;52.754;13.040;2023-12-20T06:38:53;7.60;;;2.00;;
20695;SDS011;10507;52.754;13.040;2023-12-20T06:41:22;5.40;;;2.10;;
20695;SDS011;10507;52.754;13.040;2023-12-20T06:43:49;10.37;;;2.57;;
20695;SDS011;10507;52.754;13.040;2023-12-20T06:46:16;14.90;;;3.37;;
20695;SDS011;10507;52.754;13.040;2023-12-20T06:48:43;11.00;;;2.83;;
20695;SDS011;10507;52.754;13.040;2023-12-20T06:51:11;9.97;;;2.73;;
20695;SDS011;10507;52.754;13.040;2023-12-20T06:53:39;9.80;;;2.73;;
20695;SDS011;10507;52.754;13.040;2023-12-20T06:56:10;10.90;;;3.00;;
20695;SDS011;10507;52.754;13.040;2023-12-20T06:58:39;9.60;;;2.47;;
20695;SDS011;10507;52.754;13.040;2023-12-20T07:01:10;6.13;;;2.20;;
20695;SDS011;10507;52.754;13.040;2023-12-20T07:03:37;10.23;;;2.67;;
20695;SDS011;10507;52.754;13.040;2023-12-20T07:06:04;7.00;;;2.07;;
20695;SDS011;10507;52.754;13.040;2023-12-20T07:08:31;13.83;;;2.87;;
20695;SDS011;10507;52.754;13.040;2023-12-20T07:10:58;9.87;;;2.43;;
20695;SDS011;10507;52.754;13.040;2023-12-20T07:13:26;5.20;;;2.23;;
20695;SDS011;10507;52.754;13.040;2023-12-20T07:15:53;6.47;;;2.53;;
20695;SDS011;10507;52.754;13.040;2023-12-20T07:18:20;11.90;;;3.07;;
20695;SDS011;10507;52.754;13.040;2023-12-20T07:20:47;8.00;;;2.73;;
20695;SDS011;10507;52.754;13.040;2023-12-20T07:23:17;14.17;;;3.60;;
20695;SDS011;10507;52.754;13.040;2023-12-20T07:25:44;10.00;;;2.27;;
20695;SDS011;10507;52.754;13.040;2023-12-20T07:28:11;8.33;;;2.60;;
20695;SDS011;10507;52.754;13.040;2023-12-20T07:30:40;5.20;;;2.37;;
20695;SDS011;10507;52.754;13.040;2023-12-20T07:33:10;14.60;;;3.00;;
20695;SDS011;10507;52.754;13.040;2023-12-20T07:35:39;9.27;;;2.93;;
20695;SDS011;10507;52.754;13.040;2023-12-20T07:38:13;9.77;;;2.60;;
20695;SDS011;10507;52.754;13.040;2023-12-20T07:40:40;11.43;;;4.03;;
20695;SDS011;10507;52.754;13.040;2023-12-20T07:43:07;10.00;;;3.17;;
20695;SDS011;10507;52.754;13.040;2023-12-20T07:45:34;10.30;;;4.37;;
20695;SDS011;10507;52.754;13.040;2023-12-20T07:48:03;8.50;;;2.60;;
20695;SDS011;10507;52.754;13.040;2023-12-20T07:50:30;10.10;;;2.97;;
20695;SDS011;10507;52.754;13.040;2023-12-20T07:52:58;8.87;;;2.87;;
20695;SDS011;10507;52.754;13.040;2023-12-20T07:55:25;9.90;;;2.77;;
20695;SDS011;10507;52.754;13.040;2023-12-20T07:57:52;12.13;;;2.67;;
20695;SDS011;10507;52.754;13.040;2023-12-20T08:00:19;7.20;;;2.60;;
20695;SDS011;10507;52.754;13.040;2023-12-20T08:02:46;7.57;;;3.07;;
20695;SDS011;10507;52.754;13.040;2023-12-20T08:05:14;10.30;;;3.70;;
20695;SDS011;10507;52.754;13.040;2023-12-20T08:07:41;7.87;;;2.70;;
20695;SDS011;10507;52.754;13.040;2023-12-20T08:10:07;7.83;;;2.70;;
20695;SDS011;10507;52.754;13.040;2023-12-20T08:12:34;8.10;;;2.50;;
20695;SDS011;10507;52.754;13.040;2023-12-20T08:15:01;9.10;;;2.47;;
20695;SDS011;10507;52.754;13.040;2023-12-20T08:17:29;8.17;;;2.73;;
20695;SDS011;10507;52.754;13.040;2023-12-20T08:19:55;9.87;;;2.93;;
20695;SDS011;10507;52.754;13.040;2023-12-20T08:22:24;9.93;;;2.73;;
20695;SDS011;10507;52.754;13.040;2023-12-20T08:24:50;8.83;;;2.53;;
20695;SDS011;10507;52.754;13.040;2023-12-20T08:27:17;5.10;;;2.27;;
20695;SDS011;10507;52.754;13.040;2023-12-20T08:29:44;8.07;;;2.57;;
20695;SDS011;10507;52.754;13.040;2023-12-20T08:32:11;8.63;;;2.83;;
20695;SDS011;10507;52.754;13.040;2023-12-20T08:34:38;9.17;;;2.47;;
20695;SDS011;10507;52.754;13.040;2023-12-20T08:37:05;9.77;;;2.70;;
20695;SDS011;10507;52.754;13.040;2023-12-20T08:39:33;10.13;;;2.40;;
20695;SDS011;10507;52.754;13.040;2023-12-20T08:41:59;8.20;;;2.23;;
20695;SDS011;10507;52.754;13.040;2023-12-20T08:44:29;11.07;;;2.30;;
20695;SDS011;10507;52.754;13.040;2023-12-20T08:46:56;7.97;;;2.70;;
20695;SDS011;10507;52.754;13.040;2023-12-20T08:49:23;5.00;;;2.27;;
20695;SDS011;10507;52.754;13.040;2023-12-20T08:51:50;9.53;;;2.70;;
20695;SDS011;10507;52.754;13.040;2023-12-20T08:54:17;14.53;;;2.87;;
20695;SDS011;10507;52.754;13.040;2023-12-20T08:56:46;13.70;;;3.93;;
20695;SDS011;10507;52.754;13.040;2023-12-20T08:59:12;11.03;;;2.13;;
20695;SDS011;10507;52.754;13.040;2023-12-20T09:01:39;9.73;;;2.73;;
20695;SDS011;10507;52.754;13.040;2023-12-20T09:04:06;8.97;;;2.80;;
20695;SDS011;10507;52.754;13.040;2023-12-20T09:06:32;7.70;;;2.07;;
20695;SDS011;10507;52.754;13.040;2023-12-20T09:08:58;13.63;;;3.43;;
20695;SDS011;10507;52.754;13.040;2023-12-20T09:11:25;13.43;;;2.53;;
20695;SDS011;10507;52.754;13.040;2023-12-20T09:13:53;8.90;;;2.30;;
20695;SDS011;10507;52.754;13.040;2023-12-20T09:16:19;9.47;;;2.30;;
20695;SDS011;10507;52.754;13.040;2023-12-20T09:18:46;9.90;;;2.83;;
20695;SDS011;10507;52.754;13.040;2023-12-20T09:21:13;12.80;;;2.37;;
20695;SDS011;10507;52.754;13.040;2023-12-20T09:23:39;14.67;;;3.10;;
20695;SDS011;10507;52.754;13.040;2023-12-20T09:26:06;9.70;;;2.57;;
20695;SDS011;10507;52.754;13.040;2023-12-20T09:28:33;10.90;;;2.40;;
20695;SDS011;10507;52.754;13.040;2023-12-20T09:31:04;7.33;;;2.40;;
20695;SDS011;10507;52.754;13.040;2023-12-20T09:33:31;7.53;;;2.80;;
20695;SDS011;10507;52.754;13.040;2023-12-20T09:35:58;13.37;;;3.83;;
20695;SDS011;10507;52.754;13.040;2023-12-20T09:38:25;10.70;;;2.63;;
20695;SDS011;10507;52.754;13.040;2023-12-20T09:40:52;7.77;;;2.13;;
20695;SDS011;10507;52.754;13.040;2023-12-20T09:43:20;8.87;;;2.33;;
20695;SDS011;10507;52.754;13.040;2023-12-20T09:45:50;10.23;;;2.50;;
20695;SDS011;10507;52.754;13.040;2023-12-20T09:48:22;8.80;;;2.50;;
20695;SDS011;10507;52.754;13.040;2023-12-20T09:50:51;10.07;;;2.87;;
20695;SDS011;10507;52.754;13.040;2023-12-20T09:53:19;9.40;;;2.93;;
20695;SDS011;10507;52.754;13.040;2023-12-20T09:55:48;9.43;;;2.70;;
20695;SDS011;10507;52.754;13.040;2023-12-20T09:58:15;9.03;;;2.43;;
20695;SDS011;10507;52.754;13.040;2023-12-20T10:00:42;9.20;;;2.40;;
20695;SDS011;10507;52.754;13.040;2023-12-20T10:03:08;7.83;;;2.67;;
20695;SDS011;10507;52.754;13.040;2023-12-20T10:05:42;10.60;;;2.73;;
20695;SDS011;10507;52.754;13.040;2023-12-20T10:08:09;17.03;;;2.63;;
20695;SDS011;10507;52.754;13.040;2023-12-20T10:10:36;9.53;;;2.67;;
20695;SDS011;10507;52.754;13.040;2023-12-20T10:13:04;10.00;;;2.60;;
20695;SDS011;10507;52.754;13.040;2023-12-20T10:15:34;10.80;;;2.50;;
20695;SDS011;10507;52.754;13.040;2023-12-20T10:18:01;12.33;;;2.90;;
20695;SDS011;10507;52.754;13.040;2023-12-20T10:20:28;8.63;;;3.77;;
20695;SDS011;10507;52.754;13.040;2023-12-20T10:22:57;11.00;;;2.40;;
20695;SDS011;10507;52.754;13.040;2023-12-20T10:25:25;11.20;;;2.43;;
20695;SDS011;10507;52.754;13.040;2023-12-20T10:30:38;11.07;;;2.50;;
20695;SDS011;10507;52.754;13.040;2023-12-20T10:33:05;6.07;;;2.93;;
20695;SDS011;10507;52.754;13.040;2023-12-20T10:35:32;8.40;;;2.40;;
20695;SDS011;10507;52.754;13.040;2023-12-20T10:38:03;10.10;;;3.10;;
20695;SDS011;10507;52.754;13.040;2023-12-20T10:40:31;9.47;;;2.90;;
20695;SDS011;10507;52.754;13.040;2023-12-20T10:43:01;10.43;;;2.93;;
20695;SDS011;10507;52.754;13.040;2023-12-20T10:45:29;10.87;;;2.60;;
20695;SDS011;10507;52.754;13.040;2023-12-20T10:47:56;14.03;;;3.57;;
20695;SDS011;10507;52.754;13.040;2023-12-20T10:50:25;10.30;;;2.50;;
20695;SDS011;10507;52.754;13.040;2023-12-20T10:52:53;8.47;;;2.87;;
20695;SDS011;10507;52.754;13.040;2023-12-20T10:55:23;7.73;;;2.87;;
20695;SDS011;10507;52.754;13.040;2023-12-20T10:57:50;10.10;;;2.23;;
20695;SDS011;10507;52.754;13.040;2023-12-20T11:00:18;11.97;;;3.00;;
20695;SDS011;10507;52.754;13.040;2023-12-20T11:02:45;9.63;;;2.27;;
20695;SDS011;10507;52.754;13.040;2023-12-20T11:05:19;10.10;;;2.23;;
20695;SDS011;10507;52.754;13.040;2023-12-20T11:07:58;9.60;;;2.70;;
20695;SDS011;10507;52.754;13.040;2023-12-20T11:10:30;16.37;;;2.87;;
20695;SDS011;10507;52.754;13.040;2023-12-20T11:13:02;8.37;;;2.80;;
20695;SDS011;10507;52.754;13.040;2023-12-20T11:15:35;10.27;;;2.50;;
20695;SDS011;10507;52.754;13.040;2023-12-20T11:18:03;11.73;;;2.60;;
20695;SDS011;10507;52.754;13.040;2023-12-20T11:20:35;8.07;;;2.30;;
20695;SDS011;10507;52.754;13.040;2023-12-20T11:23:07;10.60;;;2.90;;
20695;SDS011;10507;52.754;13.040;2023-12-20T11:25:47;14.30;;;2.90;;
20695;SDS011;10507;52.754;13.040;2023-12-20T11:28:14;11.57;;;2.83;;
20695;SDS011;10507;52.754;13.040;2023-12-20T11:30:46;11.60;;;3.43;;
20695;SDS011;10507;52.754;13.040;2023-12-20T11:33:14;6.80;;;2.70;;
20695;SDS011;10507;52.754;13.040;2023-12-20T11:35:41;11.83;;;3.30;;
20695;SDS011;10507;52.754;13.040;2023-12-20T11:38:08;13.90;;;2.57;;
20695;SDS011;10507;52.754;13.040;2023-12-20T11:40:36;10.00;;;2.50;;
20695;SDS011;10507;52.754;13.040;2023-12-20T11:43:04;10.97;;;2.70;;
20695;SDS011;10507;52.754;13.040;2023-12-20T11:45:32;10.70;;;2.70;;
20695;SDS011;10507;52.754;13.040;2023-12-20T11:48:00;11.23;;;3.27;;
20695;SDS011;10507;52.754;13.040;2023-12-20T11:50:28;11.13;;;2.63;;
20695;SDS011;10507;52.754;13.040;2023-12-20T11:52:58;10.57;;;2.80;;
20695;SDS011;10507;52.754;13.040;2023-12-20T11:55:24;10.60;;;2.83;;
20695;SDS011;10507;52.754;13.040;2023-12-20T11:57:53;8.00;;;2.20;;
20695;SDS011;10507;52.754;13.040;2023-12-20T12:00:22;5.27;;;1.90;;
20695;SDS011;10507;52.754;13.040;2023-12-20T12:02:55;5.77;;;2.20;;
20695;SDS011;10507;52.754;13.040;2023-12-20T12:05:24;8.17;;;2.60;;
20695;SDS011;10507;52.754;13.040;2023-12-20T12:07:52;12.63;;;2.90;;
20695;SDS011;10507;52.754;13.040;2023-12-20T12:10:19;10.50;;;2.50;;
20695;SDS011;10507;52.754;13.040;2023-12-20T12:12:46;9.70;;;2.30;;
20695;SDS011;10507;52.754;13.040;2023-12-20T12:15:14;11.80;;;2.60;;
20695;SDS011;10507;52.754;13.040;2023-12-20T12:17:42;6.33;;;2.70;;
20695;SDS011;10507;52.754;13.040;2023-12-20T12:20:09;8.27;;;2.20;;
20695;SDS011;10507;52.754;13.040;2023-12-20T12:22:37;6.70;;;2.20;;
20695;SDS011;10507;52.754;13.040;2023-12-20T12:25:11;12.03;;;2.50;;
20695;SDS011;10507;52.754;13.040;2023-12-20T12:27:41;10.53;;;2.57;;
20695;SDS011;10507;52.754;13.040;2023-12-20T12:30:09;5.90;;;2.30;;
20695;SDS011;10507;52.754;13.040;2023-12-20T12:32:38;9.23;;;2.40;;
20695;SDS011;10507;52.754;13.040;2023-12-20T12:35:07;10.77;;;2.83;;
20695;SDS011;10507;52.754;13.040;2023-12-20T12:37:35;2.67;;;1.40;;
20695;SDS011;10507;52.754;13.040;2023-12-20T12:40:05;2.53;;;1.00;;
20695;SDS011;10507;52.754;13.040;2023-12-20T12:42:32;1.50;;;1.20;;
20695;SDS011;10507;52.754;13.040;2023-12-20T12:44:59;2.53;;;0.83;;
20695;SDS011;10507;52.754;13.040;2023-12-20T12:47:26;1.93;;;0.97;;
20695;SDS011;10507;52.754;13.040;2023-12-20T12:49:53;1.37;;;0.83;;
20695;SDS011;10507;52.754;13.040;2023-12-20T12:52:22;2.00;;;1.10;;
20695;SDS011;10507;52.754;13.040;2023-12-20T12:54:52;3.70;;;1.00;;
20695;SDS011;10507;52.754;13.040;2023-12-20T12:57:18;4.10;;;1.10;;
20695;SDS011;10507;52.754;13.040;2023-12-20T12:59:46;8.50;;;1.50;;
20695;SDS011;10507;52.754;13.040;2023-12-20T13:02:16;2.83;;;1.53;;
20695;SDS011;10507;52.754;13.040;2023-12-20T13:04:43;5.37;;;1.77;;
20695;SDS011;10507;52.754;13.040;2023-12-20T13:07:10;4.23;;;1.83;;
20695;SDS011;10507;52.754;13.040;2023-12-20T13:09:41;8.57;;;1.83;;
20695;SDS011;10507;52.754;13.040;2023-12-20T13:12:08;6.20;;;2.10;;
20695;SDS011;10507;52.754;13.040;2023-12-20T13:14:35;6.67;;;2.30;;
20695;SDS011;10507;52.754;13.040;2023-12-20T13:17:02;7.20;;;2.07;;
20695;SDS011;10507;52.754;13.040;2023-12-20T13:19:35;6.73;;;1.83;;
20695;SDS011;10507;52.754;13.040;2023-12-20T13:22:02;5.67;;;1.90;;
20695;SDS011;10507;52.754;13.040;2023-12-20T13:24:29;4.50;;;1.63;;
20695;SDS011;10507;52.754;13.040;2023-12-20T13:26:58;4.27;;;1.20;;
20695;SDS011;10507;52.754;13.040;2023-12-20T13:29:25;2.83;;;1.30;;
20695;SDS011;10507;52.754;13.040;2023-12-20T13:31:52;3.73;;;1.20;;
20695;SDS011;10507;52.754;13.040;2023-12-20T13:34:20;5.00;;;1.60;;
20695;SDS011;10507;52.754;13.040;2023-12-20T13:36:47;3.27;;;1.50;;
20695;SDS011;10507;52.754;13.040;2023-12-20T13:39:16;4.43;;;1.90;;
20695;SDS011;10507;52.754;13.040;2023-12-20T13:41:43;3.03;;;1.40;;
20695;SDS011;10507;52.754;13.040;2023-12-20T13:44:11;3.63;;;1.13;;
20695;SDS011;10507;52.754;13.040;2023-12-20T13:46:41;3.60;;;0.87;;
20695;SDS011;10507;52.754;13.040;2023-12-20T13:49:11;3.17;;;1.10;;
20695;SDS011;10507;52.754;13.040;2023-12-20T13:51:43;4.20;;;1.97;;
20695;SDS011;10507;52.754;13.040;2023-12-20T13:54:10;4.70;;;1.07;;
20695;SDS011;10507;52.754;13.040;2023-12-20T13:56:37;3.90;;;1.07;;
20695;SDS011;10507;52.754;13.040;2023-12-20T13:59:04;3.70;;;1.30;;
20695;SDS011;10507;52.754;13.040;2023-12-20T14:01:32;7.43;;;1.20;;
20695;SDS011;10507;52.754;13.040;2023-12-20T14:04:01;2.90;;;1.00;;
20695;SDS011;10507;52.754;13.040;2023-12-20T14:06:28;3.20;;;1.10;;
20695;SDS011;10507;52.754;13.040;2023-12-20T14:08:55;4.37;;;1.10;;
20695;SDS011;10507;52.754;13.040;2023-12-20T14:11:25;3.70;;;1.03;;
20695;SDS011;10507;52.754;13.040;2023-12-20T14:13:53;1.93;;;1.10;;
20695;SDS011;10507;52.754;13.040;2023-12-20T14:16:23;5.80;;;1.90;;
20695;SDS011;10507;52.754;13.040;2023-12-20T14:18:51;2.53;;;1.13;;
20695;SDS011;10507;52.754;13.040;2023-12-20T14:21:18;2.57;;;1.03;;
20695;SDS011;10507;52.754;13.040;2023-12-20T14:23:45;1.50;;;0.90;;
20695;SDS011;10507;52.754;13.040;2023-12-20T14:26:12;4.07;;;1.00;;
20695;SDS011;10507;52.754;13.040;2023-12-20T14:28:40;2.57;;;0.97;;
20695;SDS011;10507;52.754;13.040;2023-12-20T14:31:07;6.33;;;1.73;;
20695;SDS011;10507;52.754;13.040;2023-12-20T14:33:40;3.23;;;1.10;;
20695;SDS011;10507;52.754;13.040;2023-12-20T14:36:09;3.80;;;1.17;;
20695;SDS011;10507;52.754;13.040;2023-12-20T14:38:38;4.80;;;1.00;;